DAL weather

Dallas Love Field
Dallas, Texas, United States

Public forecast

Using degrees Fahrenheit for public forecast. Weather courtesy of forecast.io.

METAR (pilot weather report)

Retrieved 2019/03/25 22:53 UTC (1 hour ago):

KDAL 252253Z 34010KT 310V020 10SM FEW250 22/10 A3017 RMK AO2 SLP213 T02220100

TAF (pilot weather forecast)

Retrieved 2019/03/25 18:27 UTC (6 hours ago):

TAF KDAL 251724Z 2518/2618 36013KT P6SM SKC FM260100 03007KT P6SM SKC